createdAt,value
2022-09-02T00:00:23.192Z,15.43
2022-09-02T00:01:23.163Z,15.47
2022-09-02T00:02:24.074Z,15.51
2022-09-02T00:03:23.527Z,15.55
2022-09-02T00:04:23.130Z,15.43
2022-09-02T00:05:23.133Z,15.47
2022-09-02T00:06:23.179Z,15.46
2022-09-02T00:07:23.099Z,15.52
2022-09-02T00:08:23.085Z,15.43
2022-09-02T00:09:23.069Z,15.51
2022-09-02T00:10:23.085Z,15.44
2022-09-02T00:11:23.057Z,15.40
2022-09-02T00:12:23.041Z,15.54
2022-09-02T00:13:23.026Z,15.49
2022-09-02T00:14:23.019Z,15.40
2022-09-02T00:15:23.019Z,15.54
2022-09-02T00:16:23.030Z,15.42
2022-09-02T00:17:22.981Z,15.39
2022-09-02T00:18:22.978Z,15.33
2022-09-02T00:19:22.965Z,15.39
2022-09-02T00:20:22.968Z,15.31
2022-09-02T00:21:22.952Z,15.28
2022-09-02T00:22:22.929Z,15.37
2022-09-02T00:23:22.917Z,15.29
2022-09-02T00:24:24.030Z,15.35
2022-09-02T00:25:22.895Z,15.36
2022-09-02T00:26:22.885Z,15.43
2022-09-02T00:27:22.872Z,15.47
2022-09-02T00:28:22.866Z,15.37
2022-09-02T00:29:22.887Z,15.43
2022-09-02T00:30:22.839Z,15.42
2022-09-02T00:31:22.894Z,15.42
2022-09-02T00:32:22.814Z,15.36
2022-09-02T00:33:22.883Z,15.31
2022-09-02T00:34:22.796Z,15.33
2022-09-02T00:35:22.800Z,15.40
2022-09-02T00:36:22.771Z,15.43
2022-09-02T00:37:22.760Z,15.43
2022-09-02T00:38:22.773Z,15.47
2022-09-02T00:39:22.737Z,15.46
2022-09-02T00:40:22.818Z,15.54
2022-09-02T00:41:22.721Z,15.49
2022-09-02T00:42:22.708Z,15.52
2022-09-02T00:43:22.798Z,15.46
2022-09-02T00:44:22.687Z,15.52
2022-09-02T00:45:22.716Z,15.47
2022-09-02T00:46:22.668Z,15.51
2022-09-02T00:47:22.651Z,15.54
2022-09-02T00:48:22.642Z,15.61
2022-09-02T00:49:22.631Z,15.52
2022-09-02T00:50:22.634Z,15.52
2022-09-02T00:51:22.605Z,15.35
2022-09-02T00:52:22.595Z,15.27
2022-09-02T00:53:22.710Z,15.29
2022-09-02T00:54:22.573Z,15.24
2022-09-02T00:55:22.692Z,15.35
2022-09-02T00:56:22.551Z,15.28
2022-09-02T00:57:22.544Z,15.36
2022-09-02T00:58:22.535Z,15.36
2022-09-02T00:59:22.536Z,15.40
2022-09-02T01:00:22.519Z,15.51
2022-09-02T01:01:22.797Z,15.43
2022-09-02T01:02:22.597Z,15.51
2022-09-02T01:03:22.643Z,15.51
2022-09-02T01:04:22.465Z,15.51
2022-09-02T01:05:22.696Z,15.51
2022-09-02T01:06:22.642Z,15.54
2022-09-02T01:07:22.429Z,15.49
2022-09-02T01:08:22.438Z,15.55
2022-09-02T01:09:22.408Z,15.54
2022-09-02T01:10:22.494Z,15.46
2022-09-02T01:11:22.384Z,15.31
2022-09-02T01:12:22.373Z,15.29
2022-09-02T01:13:22.531Z,15.21
2022-09-02T01:14:22.353Z,15.27
2022-09-02T01:15:22.335Z,15.35
2022-09-02T01:16:22.374Z,15.40
2022-09-02T01:17:22.318Z,15.35
2022-09-02T01:18:22.328Z,15.42
2022-09-02T01:19:22.296Z,15.39
2022-09-02T01:20:24.498Z,15.42
2022-09-02T01:21:22.271Z,15.29
2022-09-02T01:22:22.261Z,15.39
2022-09-02T01:23:22.584Z,15.35
2022-09-02T01:24:22.244Z,15.43
2022-09-02T01:25:22.231Z,15.27
2022-09-02T01:26:22.255Z,15.37
2022-09-02T01:27:22.362Z,15.40
2022-09-02T01:28:22.194Z,15.43
2022-09-02T01:29:22.183Z,15.54
2022-09-02T01:30:22.177Z,15.52
2022-09-02T01:31:22.206Z,15.52
2022-09-02T01:32:22.164Z,15.46
2022-09-02T01:33:22.163Z,15.47
2022-09-02T01:34:22.129Z,15.55
2022-09-02T01:35:22.135Z,15.62
2022-09-02T01:36:22.132Z,15.59
2022-09-02T01:37:22.094Z,15.62
2022-09-02T01:38:22.084Z,15.58
2022-09-02T01:39:22.069Z,15.64
2022-09-02T01:40:22.573Z,15.57
2022-09-02T01:41:22.065Z,15.51
2022-09-02T01:42:22.393Z,15.54
2022-09-02T01:43:22.083Z,15.57
2022-09-02T01:44:22.337Z,15.54
2022-09-02T01:45:22.021Z,15.43
2022-09-02T01:46:22.055Z,15.40
2022-09-02T01:47:21.984Z,15.46
2022-09-02T01:48:22.123Z,15.25
2022-09-02T01:49:21.965Z,15.33
2022-09-02T01:50:21.974Z,15.37
2022-09-02T01:51:21.944Z,15.36
2022-09-02T01:52:21.928Z,15.28
2022-09-02T01:53:22.054Z,15.42
2022-09-02T01:54:21.903Z,15.29
2022-09-02T01:55:23.541Z,15.39
2022-09-02T01:56:21.888Z,15.39
2022-09-02T01:57:21.871Z,15.37
2022-09-02T01:58:21.859Z,15.40
2022-09-02T01:59:21.850Z,15.43
2022-09-02T02:00:21.842Z,15.35
2022-09-02T02:01:22.529Z,15.39
2022-09-02T02:02:21.911Z,15.37
2022-09-02T02:03:21.927Z,15.39
2022-09-02T02:04:21.796Z,15.39
2022-09-02T02:05:21.779Z,15.31
2022-09-02T02:06:21.800Z,15.33
2022-09-02T02:07:21.761Z,15.29
2022-09-02T02:08:21.751Z,15.28
2022-09-02T02:09:21.734Z,15.21
2022-09-02T02:10:21.733Z,15.17
2022-09-02T02:11:21.732Z,15.17
2022-09-02T02:12:21.707Z,15.15
2022-09-02T02:13:21.843Z,15.17
2022-09-02T02:14:21.769Z,15.09
2022-09-02T02:15:21.670Z,15.04
2022-09-02T02:16:21.869Z,15.19
2022-09-02T02:17:21.670Z,15.09
2022-09-02T02:18:21.638Z,15.09
2022-09-02T02:19:21.623Z,15.06
2022-09-02T02:20:34.378Z,15.06
2022-09-02T02:21:21.606Z,15.10
2022-09-02T02:22:21.593Z,15.15
2022-09-02T02:23:21.702Z,15.07
2022-09-02T02:24:21.610Z,15.21
2022-09-02T02:25:21.558Z,15.17
2022-09-02T02:26:21.545Z,15.18
2022-09-02T02:27:21.541Z,15.09
2022-09-02T02:28:21.525Z,15.10
2022-09-02T02:29:21.510Z,15.09
2022-09-02T02:30:24.142Z,15.18
2022-09-02T02:31:21.648Z,15.03
2022-09-02T02:32:21.478Z,15.10
2022-09-02T02:33:21.522Z,15.09
2022-09-02T02:34:21.456Z,15.07
2022-09-02T02:35:21.969Z,15.11
2022-09-02T02:36:21.445Z,15.06
2022-09-02T02:37:25.381Z,15.15
2022-09-02T02:38:21.446Z,15.14
2022-09-02T02:39:21.397Z,15.09
2022-09-02T02:40:21.460Z,15.14
2022-09-02T02:41:21.378Z,15.11
2022-09-02T02:42:21.387Z,15.10
2022-09-02T02:43:21.357Z,15.10
2022-09-02T02:44:21.358Z,15.04
2022-09-02T02:45:21.332Z,15.07
2022-09-02T02:46:21.375Z,15.03
2022-09-02T02:47:21.307Z,15.04
2022-09-02T02:48:21.301Z,14.97
2022-09-02T02:49:21.284Z,14.91
2022-09-02T02:50:21.311Z,15.00
2022-09-02T02:51:21.288Z,14.91
2022-09-02T02:52:21.252Z,14.92
2022-09-02T02:53:21.342Z,14.86
2022-09-02T02:54:21.231Z,14.81
2022-09-02T02:55:21.221Z,14.84
2022-09-02T02:56:21.207Z,14.79
2022-09-02T02:57:21.217Z,14.72
2022-09-02T02:58:21.185Z,14.79
2022-09-02T02:59:21.172Z,14.66
2022-09-02T03:00:21.162Z,14.60
2022-09-02T03:01:21.167Z,14.65
2022-09-02T03:02:21.277Z,14.60
2022-09-02T03:03:21.350Z,14.60
2022-09-02T03:04:21.114Z,14.58
2022-09-02T03:05:21.101Z,14.62
2022-09-02T03:06:21.911Z,14.48
2022-09-02T03:07:22.147Z,14.59
2022-09-02T03:08:21.104Z,14.60
2022-09-02T03:09:21.060Z,14.53
2022-09-02T03:10:21.046Z,14.58
2022-09-02T03:11:21.030Z,14.54
2022-09-02T03:12:21.060Z,14.54
2022-09-02T03:13:21.061Z,14.50
2022-09-02T03:14:21.003Z,14.43
2022-09-02T03:15:20.989Z,14.48
2022-09-02T03:16:21.085Z,14.45
2022-09-02T03:17:21.009Z,14.44
2022-09-02T03:18:20.980Z,14.45
2022-09-02T03:19:20.938Z,14.33
2022-09-02T03:20:21.044Z,14.32
2022-09-02T03:21:20.918Z,14.29
2022-09-02T03:22:20.915Z,14.25
2022-09-02T03:23:20.896Z,14.29
2022-09-02T03:24:20.891Z,14.32
2022-09-02T03:25:20.894Z,14.32
2022-09-02T03:26:20.871Z,14.23
2022-09-02T03:27:20.855Z,14.29
2022-09-02T03:28:20.845Z,14.22
2022-09-02T03:29:20.832Z,14.22
2022-09-02T03:30:21.769Z,14.14
2022-09-02T03:31:20.969Z,14.12
2022-09-02T03:32:20.811Z,14.14
2022-09-02T03:33:20.782Z,14.12
2022-09-02T03:34:20.802Z,14.08
2022-09-02T03:35:21.486Z,14.05
2022-09-02T03:36:20.747Z,14.03
2022-09-02T03:37:20.766Z,14.00
2022-09-02T03:38:20.732Z,14.04
2022-09-02T03:39:20.759Z,13.97
2022-09-02T03:40:20.765Z,14.00
2022-09-02T03:41:21.449Z,13.95
2022-09-02T03:42:20.684Z,13.93
2022-09-02T03:43:20.689Z,13.89
2022-09-02T03:44:20.666Z,13.95
2022-09-02T03:45:20.673Z,13.87
2022-09-02T03:46:20.723Z,13.95
2022-09-02T03:47:20.746Z,13.83
2022-09-02T03:48:20.637Z,13.81
2022-09-02T03:49:20.628Z,13.92
2022-09-02T03:50:20.623Z,13.81
2022-09-02T03:51:20.579Z,13.87
2022-09-02T03:52:20.572Z,13.83
2022-09-02T03:53:20.676Z,13.90
2022-09-02T03:54:20.568Z,13.79
2022-09-02T03:55:20.536Z,13.78
2022-09-02T03:56:21.590Z,13.79
2022-09-02T03:57:20.556Z,13.74
2022-09-02T03:58:21.036Z,13.77
2022-09-02T03:59:20.492Z,13.79
2022-09-02T04:00:20.483Z,13.75
2022-09-02T04:01:20.539Z,13.86
2022-09-02T04:02:20.660Z,13.78
2022-09-02T04:03:20.703Z,13.89
2022-09-02T04:04:22.834Z,13.79
2022-09-02T04:05:20.427Z,13.83
2022-09-02T04:06:20.411Z,13.83
2022-09-02T04:07:20.402Z,13.83
2022-09-02T04:08:20.405Z,13.83
2022-09-02T04:09:20.388Z,13.79
2022-09-02T04:10:20.367Z,13.78
2022-09-02T04:11:20.360Z,13.86
2022-09-02T04:12:20.344Z,13.85
2022-09-02T04:13:20.361Z,13.86
2022-09-02T04:14:20.321Z,13.93
2022-09-02T04:15:20.322Z,13.93
2022-09-02T04:16:20.467Z,13.97
2022-09-02T04:17:20.290Z,13.99
2022-09-02T04:18:20.296Z,13.96
2022-09-02T04:19:20.271Z,13.96
2022-09-02T04:20:20.261Z,14.04
2022-09-02T04:21:20.247Z,14.03
2022-09-02T04:22:22.136Z,13.95
2022-09-02T04:23:20.306Z,14.00
2022-09-02T04:24:20.218Z,13.97
2022-09-02T04:25:20.209Z,14.00
2022-09-02T04:26:21.188Z,14.04
2022-09-02T04:27:20.202Z,14.03
2022-09-02T04:28:20.236Z,14.03
2022-09-02T04:29:20.163Z,13.99
2022-09-02T04:30:20.193Z,13.99
2022-09-02T04:31:20.180Z,13.95
2022-09-02T04:32:20.123Z,13.86
2022-09-02T04:33:20.139Z,13.92
2022-09-02T04:34:20.113Z,13.96
2022-09-02T04:35:20.087Z,13.95
2022-09-02T04:36:20.096Z,13.93
2022-09-02T04:37:28.035Z,14.03
2022-09-02T04:38:20.058Z,14.05
2022-09-02T04:39:20.048Z,14.05
2022-09-02T04:40:20.101Z,14.04
2022-09-02T04:41:21.543Z,14.04
2022-09-02T04:42:20.019Z,14.05
2022-09-02T04:43:20.116Z,13.97
2022-09-02T04:44:19.993Z,13.99
2022-09-02T04:45:19.984Z,14.08
2022-09-02T04:46:29.730Z,14.04
2022-09-02T04:47:21.098Z,14.07
2022-09-02T04:48:19.954Z,14.03
2022-09-02T04:49:20.322Z,14.07
2022-09-02T04:50:19.933Z,13.99
2022-09-02T04:51:21.116Z,14.08
2022-09-02T04:52:19.900Z,14.14
2022-09-02T04:53:19.973Z,14.11
2022-09-02T04:54:19.881Z,14.17
2022-09-02T04:55:19.868Z,14.14
2022-09-02T04:56:19.871Z,14.07
2022-09-02T04:57:19.847Z,14.08
2022-09-02T04:58:19.846Z,14.08
2022-09-02T04:59:19.826Z,14.11
2022-09-02T05:00:19.869Z,14.14
2022-09-02T05:01:19.884Z,14.17
2022-09-02T05:02:19.946Z,14.22
2022-09-02T05:03:19.786Z,14.30
2022-09-02T05:04:19.765Z,14.26
2022-09-02T05:05:19.752Z,14.29
2022-09-02T05:06:19.962Z,14.29
2022-09-02T05:07:19.737Z,14.26
2022-09-02T05:08:19.742Z,14.30
2022-09-02T05:09:19.710Z,14.26
2022-09-02T05:10:19.695Z,14.32
2022-09-02T05:11:19.727Z,14.30
2022-09-02T05:12:19.670Z,14.22
2022-09-02T05:13:19.667Z,14.28
2022-09-02T05:14:19.650Z,14.33
2022-09-02T05:15:19.642Z,14.22
2022-09-02T05:16:19.727Z,14.12
2022-09-02T05:17:19.767Z,14.25
2022-09-02T05:18:19.609Z,14.28
2022-09-02T05:19:19.593Z,14.32
2022-09-02T05:20:19.627Z,14.30
2022-09-02T05:21:19.581Z,14.17
2022-09-02T05:22:19.561Z,14.10
2022-09-02T05:23:19.950Z,14.17
2022-09-02T05:24:23.256Z,14.14
2022-09-02T05:25:20.551Z,14.18
2022-09-02T05:26:19.510Z,14.14
2022-09-02T05:27:19.532Z,14.08
2022-09-02T05:28:19.491Z,14.15
2022-09-02T05:29:22.654Z,14.14
2022-09-02T05:30:19.471Z,14.15
2022-09-02T05:31:19.517Z,14.25
2022-09-02T05:32:19.445Z,14.29
2022-09-02T05:33:19.531Z,14.32
2022-09-02T05:34:19.538Z,14.26
2022-09-02T05:35:19.436Z,14.29
2022-09-02T05:36:19.400Z,14.44
2022-09-02T05:37:19.389Z,14.53
2022-09-02T05:38:19.439Z,14.53
2022-09-02T05:39:19.437Z,14.62
2022-09-02T05:40:22.568Z,14.69
2022-09-02T05:41:19.345Z,14.77
2022-09-02T05:42:19.329Z,14.94
2022-09-02T05:43:19.322Z,15.00
2022-09-02T05:44:19.329Z,15.04
2022-09-02T05:45:20.668Z,15.11
2022-09-02T05:46:19.361Z,15.00
2022-09-02T05:47:19.287Z,15.02
2022-09-02T05:48:19.265Z,15.10
2022-09-02T05:49:19.345Z,15.10
2022-09-02T05:50:19.263Z,15.09
2022-09-02T05:51:19.241Z,15.22
2022-09-02T05:52:19.230Z,15.35
2022-09-02T05:53:19.223Z,15.29
2022-09-02T05:54:19.288Z,15.37
2022-09-02T05:55:20.855Z,15.43
2022-09-02T05:56:19.176Z,15.42
2022-09-02T05:57:19.176Z,15.40
2022-09-02T05:58:19.172Z,15.39
2022-09-02T05:59:19.166Z,15.39
2022-09-02T06:00:19.145Z,15.46
2022-09-02T06:01:19.130Z,15.54
2022-09-02T06:02:19.214Z,15.51
2022-09-02T06:03:19.349Z,15.64
2022-09-02T06:04:19.127Z,15.72
2022-09-02T06:05:19.075Z,15.75
2022-09-02T06:06:19.214Z,15.65
2022-09-02T06:07:19.055Z,15.68
2022-09-02T06:08:19.044Z,15.68
2022-09-02T06:09:19.034Z,15.73
2022-09-02T06:10:21.112Z,15.88
2022-09-02T06:11:19.008Z,15.98
2022-09-02T06:12:19.023Z,15.98
2022-09-02T06:13:19.024Z,16.12
2022-09-02T06:14:18.974Z,16.13
2022-09-02T06:15:18.991Z,15.97
2022-09-02T06:16:19.019Z,16.00
2022-09-02T06:17:18.942Z,15.95
2022-09-02T06:18:18.930Z,16.02
2022-09-02T06:19:20.466Z,16.24
2022-09-02T06:20:21.291Z,16.26
2022-09-02T06:21:18.901Z,16.36
2022-09-02T06:22:18.932Z,16.43
2022-09-02T06:23:19.067Z,16.60
2022-09-02T06:24:18.866Z,16.66
2022-09-02T06:25:18.853Z,16.66
2022-09-02T06:26:18.882Z,16.76
2022-09-02T06:27:18.902Z,17.05
2022-09-02T06:28:18.816Z,17.31
2022-09-02T06:29:18.811Z,17.38
2022-09-02T06:30:18.875Z,17.34
2022-09-02T06:31:18.861Z,17.33
2022-09-02T06:32:18.779Z,17.27
2022-09-02T06:33:18.768Z,17.20
2022-09-02T06:34:18.753Z,16.96
2022-09-02T06:35:18.763Z,17.06
2022-09-02T06:36:18.724Z,17.04
2022-09-02T06:37:18.721Z,17.64
2022-09-02T06:38:18.710Z,18.81
2022-09-02T06:39:23.643Z,20.22
2022-09-02T06:40:18.736Z,20.90
2022-09-02T06:41:18.677Z,21.06
2022-09-02T06:42:18.661Z,20.37
2022-09-02T06:43:18.693Z,19.84
2022-09-02T06:44:20.323Z,19.62
2022-09-02T06:45:18.629Z,19.41
2022-09-02T06:46:19.603Z,19.07
2022-09-02T06:47:18.618Z,18.93
2022-09-02T06:48:18.602Z,19.29
2022-09-02T06:49:18.592Z,19.56
2022-09-02T06:50:18.599Z,19.55
2022-09-02T06:51:18.567Z,20.74
2022-09-02T06:52:18.551Z,22.38
2022-09-02T06:53:18.587Z,23.81
2022-09-02T06:54:20.499Z,24.91
2022-09-02T06:55:18.525Z,25.53
2022-09-02T06:56:18.509Z,25.55
2022-09-02T06:57:18.582Z,25.47
2022-09-02T06:58:18.477Z,25.69
2022-09-02T06:59:18.492Z,26.29
2022-09-02T07:00:18.484Z,26.38
2022-09-02T07:01:18.583Z,26.44
2022-09-02T07:02:18.449Z,26.90
2022-09-02T07:03:18.554Z,27.74
2022-09-02T07:04:18.419Z,28.22
2022-09-02T07:05:18.875Z,28.78
2022-09-02T07:06:18.400Z,29.59
2022-09-02T07:07:18.386Z,30.35
2022-09-02T07:08:18.383Z,30.27
2022-09-02T07:09:18.394Z,30.50
2022-09-02T07:10:18.357Z,29.79
2022-09-02T07:11:18.341Z,30.19
2022-09-02T07:12:18.332Z,30.73
2022-09-02T07:13:18.389Z,31.28
2022-09-02T07:14:18.335Z,31.59
2022-09-02T07:15:18.338Z,32.16
2022-09-02T07:16:18.477Z,31.59
2022-09-02T07:17:19.286Z,30.73
2022-09-02T07:18:18.364Z,30.81
2022-09-02T07:19:20.647Z,30.65
2022-09-02T07:20:19.040Z,30.31
2022-09-02T07:21:18.237Z,30.19
2022-09-02T07:22:18.891Z,30.51
2022-09-02T07:23:18.228Z,30.85
2022-09-02T07:24:18.221Z,31.46
2022-09-02T07:25:18.189Z,32.31
2022-09-02T07:26:18.214Z,32.95
2022-09-02T07:27:18.172Z,33.80
2022-09-02T07:28:18.163Z,34.42
2022-09-02T07:29:18.182Z,34.86
2022-09-02T07:30:18.135Z,34.80
2022-09-02T07:31:18.300Z,34.90
2022-09-02T07:32:18.121Z,34.86
2022-09-02T07:33:18.159Z,34.77
2022-09-02T07:34:18.093Z,34.14
2022-09-02T07:35:19.220Z,34.21
2022-09-02T07:36:18.102Z,34.57
2022-09-02T07:37:18.332Z,35.19
2022-09-02T07:38:18.054Z,35.78
2022-09-02T07:39:18.045Z,36.12
2022-09-02T07:40:18.124Z,36.18
2022-09-02T07:41:18.022Z,36.33
2022-09-02T07:42:18.049Z,35.53
2022-09-02T07:43:18.061Z,35.41
2022-09-02T07:44:18.034Z,35.26
2022-09-02T07:45:17.983Z,35.66
2022-09-02T07:46:18.004Z,34.70
2022-09-02T07:47:17.974Z,34.78
2022-09-02T07:48:17.974Z,35.46
2022-09-02T07:49:22.051Z,35.24
2022-09-02T07:50:21.016Z,35.23
2022-09-02T07:51:18.095Z,35.34
2022-09-02T07:52:18.022Z,36.04
2022-09-02T07:53:18.034Z,35.58
2022-09-02T07:54:18.636Z,34.08
2022-09-02T07:55:18.610Z,32.89
2022-09-02T07:56:17.893Z,32.07
2022-09-02T07:57:17.872Z,31.54
2022-09-02T07:58:17.845Z,30.70
2022-09-02T07:59:17.851Z,30.34
2022-09-02T08:00:17.848Z,30.69
2022-09-02T08:01:22.654Z,31.59
2022-09-02T08:02:18.924Z,31.27
2022-09-02T08:03:17.793Z,31.28
2022-09-02T08:04:17.885Z,31.93
2022-09-02T08:05:17.779Z,31.70
2022-09-02T08:06:17.764Z,31.44
2022-09-02T08:07:18.752Z,31.80
2022-09-02T08:08:17.735Z,32.48
2022-09-02T08:09:17.733Z,32.82
2022-09-02T08:10:17.733Z,33.22
2022-09-02T08:11:18.564Z,33.47
2022-09-02T08:12:20.191Z,33.58
2022-09-02T08:13:17.789Z,33.80
2022-09-02T08:14:17.677Z,34.75
2022-09-02T08:15:17.688Z,35.18
2022-09-02T08:16:17.703Z,35.07
2022-09-02T08:17:17.646Z,35.61
2022-09-02T08:18:21.608Z,35.15
2022-09-02T08:19:18.627Z,33.04
2022-09-02T08:20:19.944Z,33.53
2022-09-02T08:21:17.605Z,34.61
2022-09-02T08:22:17.609Z,35.45
2022-09-02T08:23:33.152Z,36.49
2022-09-02T08:24:18.610Z,37.48
2022-09-02T08:25:17.588Z,37.64
2022-09-02T08:26:17.581Z,36.47
2022-09-02T08:27:17.542Z,36.58
2022-09-02T08:28:17.658Z,37.14
2022-09-02T08:29:17.520Z,37.94
2022-09-02T08:30:17.550Z,37.67
2022-09-02T08:31:17.573Z,37.49
2022-09-02T08:32:17.577Z,36.86
2022-09-02T08:33:17.518Z,36.62
2022-09-02T08:34:17.472Z,37.40
2022-09-02T08:35:17.521Z,38.23
2022-09-02T08:36:17.450Z,38.36
2022-09-02T08:37:17.436Z,38.91
2022-09-02T08:38:17.473Z,39.15
2022-09-02T08:39:17.468Z,38.54
2022-09-02T08:40:18.178Z,38.42
2022-09-02T08:41:18.118Z,38.27
2022-09-02T08:42:17.424Z,38.09
2022-09-02T08:43:17.447Z,38.24
2022-09-02T08:44:17.375Z,38.49
2022-09-02T08:45:17.425Z,37.29
2022-09-02T08:46:17.397Z,35.92
2022-09-02T08:47:17.364Z,36.30
2022-09-02T08:48:17.331Z,35.70
2022-09-02T08:49:17.320Z,35.63
2022-09-02T08:50:17.321Z,35.41
2022-09-02T08:51:18.639Z,35.97
2022-09-02T08:52:17.933Z,37.15
2022-09-02T08:53:17.283Z,38.20
2022-09-02T08:54:17.275Z,38.80
2022-09-02T08:55:17.279Z,39.63
2022-09-02T08:56:17.252Z,39.72
2022-09-02T08:57:17.244Z,39.18
2022-09-02T08:58:17.471Z,38.30
2022-09-02T08:59:17.224Z,38.50
2022-09-02T09:00:17.231Z,39.44
2022-09-02T09:01:17.286Z,40.40
2022-09-02T09:02:17.784Z,41.04
2022-09-02T09:03:17.188Z,41.07
2022-09-02T09:04:17.200Z,39.85
2022-09-02T09:05:17.307Z,39.56
2022-09-02T09:06:17.186Z,38.55
2022-09-02T09:07:17.145Z,37.55
2022-09-02T09:08:21.455Z,37.47
2022-09-02T09:09:17.130Z,38.33
2022-09-02T09:10:17.117Z,38.45
2022-09-02T09:11:17.128Z,37.78
2022-09-02T09:12:17.100Z,37.28
2022-09-02T09:13:17.084Z,37.78
2022-09-02T09:14:17.078Z,38.68
2022-09-02T09:15:17.465Z,38.71
2022-09-02T09:16:17.179Z,38.60
2022-09-02T09:17:17.046Z,39.33
2022-09-02T09:18:17.038Z,39.26
2022-09-02T09:19:17.379Z,38.55
2022-09-02T09:20:17.023Z,37.01
2022-09-02T09:21:17.070Z,35.85
2022-09-02T09:22:16.999Z,35.27
2022-09-02T09:23:21.398Z,36.02
2022-09-02T09:24:18.017Z,36.42
2022-09-02T09:25:16.976Z,37.03
2022-09-02T09:26:16.961Z,37.99
2022-09-02T09:27:16.955Z,38.65
2022-09-02T09:28:16.944Z,38.76
2022-09-02T09:29:16.932Z,39.33
2022-09-02T09:30:17.051Z,40.26
2022-09-02T09:31:16.967Z,38.76
2022-09-02T09:32:16.906Z,36.96
2022-09-02T09:33:16.893Z,36.73
2022-09-02T09:34:16.894Z,37.25
2022-09-02T09:35:16.907Z,37.97
2022-09-02T09:36:16.900Z,38.65
2022-09-02T09:37:16.858Z,38.96
2022-09-02T09:38:16.845Z,39.86
2022-09-02T09:39:16.841Z,40.09
2022-09-02T09:40:16.999Z,40.33
2022-09-02T09:41:16.891Z,40.12
2022-09-02T09:42:17.000Z,39.99
2022-09-02T09:43:16.961Z,39.96
2022-09-02T09:44:16.824Z,39.74
2022-09-02T09:45:16.784Z,40.30
2022-09-02T09:46:16.866Z,40.35
2022-09-02T09:47:18.149Z,40.81
2022-09-02T09:48:16.787Z,41.03
2022-09-02T09:49:16.765Z,40.30
2022-09-02T09:50:16.798Z,39.87
2022-09-02T09:51:16.963Z,39.29
2022-09-02T09:52:16.726Z,39.97
2022-09-02T09:53:16.716Z,39.80
2022-09-02T09:54:16.704Z,38.69
2022-09-02T09:55:22.770Z,37.25
2022-09-02T09:56:17.689Z,35.66
2022-09-02T09:57:16.674Z,34.57
2022-09-02T09:58:16.724Z,32.92
2022-09-02T09:59:20.327Z,31.42
2022-09-02T10:00:16.689Z,30.72
2022-09-02T10:01:16.712Z,31.42
2022-09-02T10:02:16.705Z,33.19
2022-09-02T10:03:19.606Z,34.54
2022-09-02T10:04:39.342Z,35.83
2022-09-02T10:05:17.588Z,36.77
2022-09-02T10:06:16.601Z,37.08
2022-09-02T10:07:16.569Z,37.56
2022-09-02T10:08:16.584Z,37.72
2022-09-02T10:09:16.571Z,37.74
2022-09-02T10:10:16.600Z,37.59
2022-09-02T10:11:16.546Z,37.45
2022-09-02T10:12:16.549Z,36.25
2022-09-02T10:13:16.515Z,33.99
2022-09-02T10:14:16.508Z,32.09
2022-09-02T10:15:16.511Z,30.15
2022-09-02T10:16:16.627Z,31.03
2022-09-02T10:17:16.468Z,31.39
2022-09-02T10:18:16.467Z,30.78
2022-09-02T10:19:24.112Z,30.51
2022-09-02T10:20:16.535Z,30.50
2022-09-02T10:21:16.637Z,31.36
2022-09-02T10:22:16.436Z,33.27
2022-09-02T10:23:16.411Z,34.03
2022-09-02T10:24:16.401Z,32.75
2022-09-02T10:25:16.459Z,31.85
2022-09-02T10:26:16.431Z,30.66
2022-09-02T10:27:16.608Z,29.47
2022-09-02T10:28:16.363Z,29.07
2022-09-02T10:29:16.347Z,28.97
2022-09-02T10:30:16.343Z,28.64
2022-09-02T10:31:16.834Z,28.45
2022-09-02T10:32:16.320Z,28.30
2022-09-02T10:33:16.309Z,29.02
2022-09-02T10:34:16.298Z,29.82
2022-09-02T10:35:16.305Z,30.63
2022-09-02T10:36:20.835Z,32.12
2022-09-02T10:38:26.699Z,32.82
2022-09-02T10:39:26.667Z,31.94
2022-09-02T10:40:29.280Z,31.31
2022-09-02T10:41:26.688Z,31.17
2022-09-02T10:42:26.639Z,31.15
2022-09-02T10:43:26.632Z,30.75
2022-09-02T10:44:26.619Z,30.32
2022-09-02T10:45:26.679Z,29.78
2022-09-02T10:46:26.639Z,29.35
2022-09-02T10:47:29.375Z,29.14
2022-09-02T10:48:26.598Z,28.96
2022-09-02T10:49:26.586Z,28.47
2022-09-02T10:50:26.603Z,27.73
2022-09-02T10:51:26.556Z,27.51
2022-09-02T10:52:26.588Z,27.37
2022-09-02T10:53:26.537Z,27.11
2022-09-02T10:54:26.547Z,27.98
2022-09-02T10:55:26.502Z,29.01
2022-09-02T10:56:26.587Z,29.86
2022-09-02T10:57:26.482Z,30.12
2022-09-02T10:58:26.492Z,29.87
2022-09-02T10:59:26.463Z,29.23
2022-09-02T11:00:26.479Z,28.64
2022-09-02T11:01:26.476Z,28.42
2022-09-02T11:02:26.432Z,27.92
2022-09-02T11:03:26.905Z,26.89
2022-09-02T11:04:26.405Z,26.45
2022-09-02T11:05:26.397Z,26.43
2022-09-02T11:06:35.398Z,25.91
2022-09-02T11:07:27.371Z,25.87
2022-09-02T11:08:31.373Z,25.99
2022-09-02T11:09:27.368Z,26.09
2022-09-02T11:10:26.338Z,26.13
2022-09-02T11:11:26.324Z,26.25
2022-09-02T11:12:26.315Z,26.33
2022-09-02T11:13:26.330Z,26.68
2022-09-02T11:14:26.306Z,27.92
2022-09-02T11:15:26.283Z,29.39
2022-09-02T11:16:26.460Z,30.90
2022-09-02T11:17:26.284Z,31.81
2022-09-02T11:18:26.663Z,32.22
2022-09-02T11:19:26.261Z,32.34
2022-09-02T11:20:26.241Z,32.73
2022-09-02T11:21:26.225Z,32.92
2022-09-02T11:22:27.636Z,33.39
2022-09-02T11:23:27.442Z,33.83
2022-09-02T11:24:26.192Z,32.90
2022-09-02T11:25:26.193Z,32.29
2022-09-02T11:26:26.225Z,31.90
2022-09-02T11:27:41.503Z,31.07
2022-09-02T11:28:27.162Z,30.61
2022-09-02T11:29:26.139Z,30.27
2022-09-02T11:30:26.155Z,29.87
2022-09-02T11:31:26.115Z,30.09
2022-09-02T11:32:26.189Z,30.44
2022-09-02T11:33:26.289Z,30.88
2022-09-02T11:34:26.087Z,31.36
2022-09-02T11:35:26.080Z,31.73
2022-09-02T11:36:26.071Z,32.08
2022-09-02T11:37:26.113Z,32.73
2022-09-02T11:38:26.045Z,33.12
2022-09-02T11:39:36.415Z,32.77
2022-09-02T11:40:34.985Z,31.92
2022-09-02T11:41:36.700Z,31.47
2022-09-02T11:42:27.014Z,30.57
2022-09-02T11:43:25.990Z,29.44
2022-09-02T11:44:28.197Z,28.15
2022-09-02T11:45:26.101Z,27.44
2022-09-02T11:46:26.090Z,27.40
2022-09-02T11:47:25.952Z,27.36
2022-09-02T11:48:25.943Z,27.48
2022-09-02T11:49:26.759Z,27.33
2022-09-02T11:50:25.929Z,27.14
2022-09-02T11:51:25.947Z,27.15
2022-09-02T11:52:25.903Z,27.21
2022-09-02T11:53:27.592Z,27.35
2022-09-02T11:54:25.879Z,27.65
2022-09-02T11:55:25.865Z,27.63
2022-09-02T11:56:25.859Z,27.60
2022-09-02T11:57:25.866Z,27.54
2022-09-02T11:58:25.839Z,27.68
2022-09-02T11:59:25.823Z,27.55
2022-09-02T12:00:25.841Z,27.47
2022-09-02T12:01:26.093Z,26.81
2022-09-02T12:02:25.798Z,26.38
2022-09-02T12:03:43.028Z,26.34
2022-09-02T12:04:59.135Z,26.31
2022-09-02T12:05:26.885Z,26.40
2022-09-02T12:06:25.946Z,26.36
2022-09-02T12:07:26.921Z,26.15
2022-09-02T12:08:26.914Z,25.78
2022-09-02T12:09:25.718Z,25.65
2022-09-02T12:10:25.728Z,25.63
2022-09-02T12:11:25.699Z,25.63
2022-09-02T12:12:25.689Z,26.13
2022-09-02T12:13:25.681Z,26.85
2022-09-02T12:14:25.673Z,27.48
2022-09-02T12:15:25.667Z,28.19
2022-09-02T12:16:25.716Z,28.82
2022-09-02T12:17:25.635Z,29.22
2022-09-02T12:18:25.774Z,29.56
2022-09-02T12:19:25.610Z,29.95
2022-09-02T12:20:25.622Z,30.03
2022-09-02T12:21:25.647Z,29.98
2022-09-02T12:22:25.582Z,30.02
2022-09-02T12:23:25.569Z,29.94
2022-09-02T12:24:25.565Z,29.63
2022-09-02T12:25:26.694Z,29.23
2022-09-02T12:26:25.900Z,29.08
2022-09-02T12:27:25.531Z,29.13
2022-09-02T12:28:26.083Z,28.98
2022-09-02T12:29:25.550Z,29.04
2022-09-02T12:30:25.503Z,29.14
2022-09-02T12:31:25.540Z,29.20
2022-09-02T12:32:25.479Z,28.82
2022-09-02T12:33:25.485Z,28.26
2022-09-02T12:34:25.465Z,27.98
2022-09-02T12:35:25.456Z,27.73
2022-09-02T12:36:25.509Z,27.63
2022-09-02T12:37:25.428Z,27.52
2022-09-02T12:38:25.451Z,27.29
2022-09-02T12:39:25.418Z,27.25
2022-09-02T12:40:25.452Z,27.20
2022-09-02T12:41:26.382Z,27.05
2022-09-02T12:42:25.430Z,27.07
2022-09-02T12:43:25.384Z,27.12
2022-09-02T12:44:25.359Z,27.22
2022-09-02T12:45:28.816Z,27.18
2022-09-02T12:46:25.399Z,27.11
2022-09-02T12:47:25.362Z,27.26
2022-09-02T12:48:30.290Z,27.64
2022-09-02T12:49:26.385Z,27.93
2022-09-02T12:50:25.299Z,28.00
2022-09-02T12:51:25.272Z,28.27
2022-09-02T12:52:30.796Z,28.60
2022-09-02T12:53:25.374Z,28.91